sensor_id;sensor_type;location;lat;lon;timestamp;P1;durP1;ratioP1;P2;durP2;ratioP2
52650;SDS011;38537;47.226;39.702;2022-10-22T00:00:42;7.45;;;5.20;;
52650;SDS011;38537;47.226;39.702;2022-10-22T00:03:09;7.35;;;5.07;;
52650;SDS011;38537;47.226;39.702;2022-10-22T00:05:37;5.95;;;4.95;;
52650;SDS011;38537;47.226;39.702;2022-10-22T00:08:04;6.53;;;3.85;;
52650;SDS011;38537;47.226;39.702;2022-10-22T00:10:32;5.28;;;4.70;;
52650;SDS011;38537;47.226;39.702;2022-10-22T00:12:59;6.30;;;4.50;;
52650;SDS011;38537;47.226;39.702;2022-10-22T00:15:26;7.72;;;5.22;;
52650;SDS011;38537;47.226;39.702;2022-10-22T00:17:54;6.60;;;4.60;;
52650;SDS011;38537;47.226;39.702;2022-10-22T00:20:21;4.30;;;3.90;;
52650;SDS011;38537;47.226;39.702;2022-10-22T00:22:48;5.78;;;4.30;;
52650;SDS011;38537;47.226;39.702;2022-10-22T00:25:16;4.75;;;4.20;;
52650;SDS011;38537;47.226;39.702;2022-10-22T00:27:43;4.88;;;4.22;;
52650;SDS011;38537;47.226;39.702;2022-10-22T00:30:11;4.90;;;4.40;;
52650;SDS011;38537;47.226;39.702;2022-10-22T00:32:38;5.70;;;4.60;;
52650;SDS011;38537;47.226;39.702;2022-10-22T00:35:06;7.18;;;4.53;;
52650;SDS011;38537;47.226;39.702;2022-10-22T00:37:34;5.20;;;3.78;;
52650;SDS011;38537;47.226;39.702;2022-10-22T00:40:02;5.47;;;4.00;;
52650;SDS011;38537;47.226;39.702;2022-10-22T00:42:30;4.53;;;4.13;;
52650;SDS011;38537;47.226;39.702;2022-10-22T00:47:38;4.40;;;3.95;;
52650;SDS011;38537;47.226;39.702;2022-10-22T00:50:12;5.78;;;4.20;;
52650;SDS011;38537;47.226;39.702;2022-10-22T00:52:42;4.53;;;4.10;;
52650;SDS011;38537;47.226;39.702;2022-10-22T00:55:10;5.00;;;4.30;;
52650;SDS011;38537;47.226;39.702;2022-10-22T00:57:39;5.25;;;4.28;;
52650;SDS011;38537;47.226;39.702;2022-10-22T01:00:06;5.03;;;4.00;;
52650;SDS011;38537;47.226;39.702;2022-10-22T01:02:34;5.45;;;4.00;;
52650;SDS011;38537;47.226;39.702;2022-10-22T01:05:02;5.72;;;4.63;;
52650;SDS011;38537;47.226;39.702;2022-10-22T01:07:31;5.20;;;4.30;;
52650;SDS011;38537;47.226;39.702;2022-10-22T01:15:52;6.20;;;4.50;;
52650;SDS011;38537;47.226;39.702;2022-10-22T01:18:39;5.78;;;4.68;;
52650;SDS011;38537;47.226;39.702;2022-10-22T01:21:31;6.50;;;4.47;;
52650;SDS011;38537;47.226;39.702;2022-10-22T01:32:35;4.72;;;3.60;;
52650;SDS011;38537;47.226;39.702;2022-10-22T01:35:08;4.25;;;3.85;;
52650;SDS011;38537;47.226;39.702;2022-10-22T01:37:44;5.05;;;3.80;;
52650;SDS011;38537;47.226;39.702;2022-10-22T01:40:15;4.50;;;3.67;;
52650;SDS011;38537;47.226;39.702;2022-10-22T01:42:52;4.60;;;4.10;;
52650;SDS011;38537;47.226;39.702;2022-10-22T01:45:32;5.22;;;4.40;;
52650;SDS011;38537;47.226;39.702;2022-10-22T01:56:48;4.47;;;3.72;;
52650;SDS011;38537;47.226;39.702;2022-10-22T02:04:57;4.43;;;3.90;;
52650;SDS011;38537;47.226;39.702;2022-10-22T02:07:35;5.15;;;3.95;;
52650;SDS011;38537;47.226;39.702;2022-10-22T02:10:08;7.00;;;4.10;;
52650;SDS011;38537;47.226;39.702;2022-10-22T02:12:37;4.85;;;3.85;;
52650;SDS011;38537;47.226;39.702;2022-10-22T02:15:28;5.38;;;3.95;;
52650;SDS011;38537;47.226;39.702;2022-10-22T02:17:59;4.32;;;3.63;;
52650;SDS011;38537;47.226;39.702;2022-10-22T02:20:28;4.68;;;4.18;;
52650;SDS011;38537;47.226;39.702;2022-10-22T02:23:01;5.30;;;4.57;;
52650;SDS011;38537;47.226;39.702;2022-10-22T02:25:31;4.75;;;3.97;;
52650;SDS011;38537;47.226;39.702;2022-10-22T02:28:12;4.97;;;4.47;;
52650;SDS011;38537;47.226;39.702;2022-10-22T02:30:52;6.05;;;4.68;;
52650;SDS011;38537;47.226;39.702;2022-10-22T02:36:00;6.72;;;5.20;;
52650;SDS011;38537;47.226;39.702;2022-10-22T02:38:29;7.88;;;4.78;;
52650;SDS011;38537;47.226;39.702;2022-10-22T02:40:57;9.95;;;5.40;;
52650;SDS011;38537;47.226;39.702;2022-10-22T02:43:25;7.80;;;5.75;;
52650;SDS011;38537;47.226;39.702;2022-10-22T02:45:55;6.75;;;5.32;;
52650;SDS011;38537;47.226;39.702;2022-10-22T02:48:23;8.20;;;6.25;;
52650;SDS011;38537;47.226;39.702;2022-10-22T02:50:50;12.18;;;6.25;;
52650;SDS011;38537;47.226;39.702;2022-10-22T02:53:18;11.85;;;7.20;;
52650;SDS011;38537;47.226;39.702;2022-10-22T02:55:46;8.32;;;6.60;;
52650;SDS011;38537;47.226;39.702;2022-10-22T02:58:13;9.07;;;6.47;;
52650;SDS011;38537;47.226;39.702;2022-10-22T03:00:40;9.43;;;7.20;;
52650;SDS011;38537;47.226;39.702;2022-10-22T03:03:08;9.25;;;7.35;;
52650;SDS011;38537;47.226;39.702;2022-10-22T03:05:35;10.32;;;7.40;;
52650;SDS011;38537;47.226;39.702;2022-10-22T03:08:03;10.02;;;6.82;;
52650;SDS011;38537;47.226;39.702;2022-10-22T03:10:30;11.40;;;7.20;;
52650;SDS011;38537;47.226;39.702;2022-10-22T03:12:57;13.30;;;7.43;;
52650;SDS011;38537;47.226;39.702;2022-10-22T03:15:25;13.60;;;7.10;;
52650;SDS011;38537;47.226;39.702;2022-10-22T03:17:53;11.05;;;7.70;;
52650;SDS011;38537;47.226;39.702;2022-10-22T03:20:22;10.30;;;8.13;;
52650;SDS011;38537;47.226;39.702;2022-10-22T03:22:49;10.80;;;9.02;;
52650;SDS011;38537;47.226;39.702;2022-10-22T03:25:18;13.32;;;8.30;;
52650;SDS011;38537;47.226;39.702;2022-10-22T03:27:48;13.02;;;8.75;;
52650;SDS011;38537;47.226;39.702;2022-10-22T03:30:18;11.75;;;9.00;;
52650;SDS011;38537;47.226;39.702;2022-10-22T03:32:48;10.90;;;8.13;;
52650;SDS011;38537;47.226;39.702;2022-10-22T03:35:15;14.52;;;10.13;;
52650;SDS011;38537;47.226;39.702;2022-10-22T03:37:42;16.80;;;10.55;;
52650;SDS011;38537;47.226;39.702;2022-10-22T03:40:10;12.43;;;9.20;;
52650;SDS011;38537;47.226;39.702;2022-10-22T03:42:39;11.18;;;7.43;;
52650;SDS011;38537;47.226;39.702;2022-10-22T03:45:07;10.00;;;7.80;;
52650;SDS011;38537;47.226;39.702;2022-10-22T03:47:36;12.82;;;7.45;;
52650;SDS011;38537;47.226;39.702;2022-10-22T03:50:04;9.98;;;6.57;;
52650;SDS011;38537;47.226;39.702;2022-10-22T03:52:38;9.02;;;5.55;;
52650;SDS011;38537;47.226;39.702;2022-10-22T03:55:06;6.80;;;5.60;;
52650;SDS011;38537;47.226;39.702;2022-10-22T03:57:35;7.10;;;5.35;;
52650;SDS011;38537;47.226;39.702;2022-10-22T04:00:04;8.15;;;4.78;;
52650;SDS011;38537;47.226;39.702;2022-10-22T04:02:32;5.55;;;4.07;;
52650;SDS011;38537;47.226;39.702;2022-10-22T04:04:59;8.82;;;5.07;;
52650;SDS011;38537;47.226;39.702;2022-10-22T04:07:29;6.00;;;4.35;;
52650;SDS011;38537;47.226;39.702;2022-10-22T04:09:56;6.35;;;4.53;;
52650;SDS011;38537;47.226;39.702;2022-10-22T04:12:24;7.45;;;4.60;;
52650;SDS011;38537;47.226;39.702;2022-10-22T04:14:51;4.90;;;4.22;;
52650;SDS011;38537;47.226;39.702;2022-10-22T04:17:19;5.82;;;4.00;;
52650;SDS011;38537;47.226;39.702;2022-10-22T04:19:46;8.20;;;4.80;;
52650;SDS011;38537;47.226;39.702;2022-10-22T04:22:15;5.22;;;4.40;;
52650;SDS011;38537;47.226;39.702;2022-10-22T04:24:45;6.60;;;4.30;;
52650;SDS011;38537;47.226;39.702;2022-10-22T04:27:13;9.70;;;4.80;;
52650;SDS011;38537;47.226;39.702;2022-10-22T04:29:40;7.30;;;3.85;;
52650;SDS011;38537;47.226;39.702;2022-10-22T04:32:09;5.60;;;3.67;;
52650;SDS011;38537;47.226;39.702;2022-10-22T04:34:37;6.60;;;4.25;;
52650;SDS011;38537;47.226;39.702;2022-10-22T04:37:04;4.90;;;3.50;;
52650;SDS011;38537;47.226;39.702;2022-10-22T04:39:33;6.75;;;4.07;;
52650;SDS011;38537;47.226;39.702;2022-10-22T04:42:02;8.50;;;4.80;;
52650;SDS011;38537;47.226;39.702;2022-10-22T04:44:29;6.22;;;4.57;;
52650;SDS011;38537;47.226;39.702;2022-10-22T04:46:57;8.43;;;4.82;;
52650;SDS011;38537;47.226;39.702;2022-10-22T04:49:24;7.85;;;5.00;;
52650;SDS011;38537;47.226;39.702;2022-10-22T04:51:52;6.60;;;5.13;;
52650;SDS011;38537;47.226;39.702;2022-10-22T04:54:19;7.82;;;4.93;;
52650;SDS011;38537;47.226;39.702;2022-10-22T04:56:47;8.63;;;5.00;;
52650;SDS011;38537;47.226;39.702;2022-10-22T04:59:14;7.95;;;5.28;;
52650;SDS011;38537;47.226;39.702;2022-10-22T05:01:42;13.57;;;6.38;;
52650;SDS011;38537;47.226;39.702;2022-10-22T05:04:13;8.88;;;5.60;;
52650;SDS011;38537;47.226;39.702;2022-10-22T05:06:42;12.30;;;5.88;;
52650;SDS011;38537;47.226;39.702;2022-10-22T05:09:16;8.30;;;5.60;;
52650;SDS011;38537;47.226;39.702;2022-10-22T05:11:49;8.68;;;5.90;;
52650;SDS011;38537;47.226;39.702;2022-10-22T05:14:21;12.45;;;5.70;;
52650;SDS011;38537;47.226;39.702;2022-10-22T05:16:50;7.70;;;5.07;;
52650;SDS011;38537;47.226;39.702;2022-10-22T05:19:19;7.75;;;5.57;;
52650;SDS011;38537;47.226;39.702;2022-10-22T05:21:50;8.43;;;4.60;;
52650;SDS011;38537;47.226;39.702;2022-10-22T05:24:19;12.32;;;6.03;;
52650;SDS011;38537;47.226;39.702;2022-10-22T05:26:48;8.98;;;6.25;;
52650;SDS011;38537;47.226;39.702;2022-10-22T05:29:16;7.80;;;5.53;;
52650;SDS011;38537;47.226;39.702;2022-10-22T05:31:44;9.48;;;5.97;;
52650;SDS011;38537;47.226;39.702;2022-10-22T05:34:11;9.43;;;7.13;;
52650;SDS011;38537;47.226;39.702;2022-10-22T05:36:41;13.48;;;7.13;;
52650;SDS011;38537;47.226;39.702;2022-10-22T05:39:08;10.13;;;6.80;;
52650;SDS011;38537;47.226;39.702;2022-10-22T05:41:35;9.77;;;6.57;;
52650;SDS011;38537;47.226;39.702;2022-10-22T05:44:04;11.82;;;6.05;;
52650;SDS011;38537;47.226;39.702;2022-10-22T05:46:35;10.02;;;6.60;;
52650;SDS011;38537;47.226;39.702;2022-10-22T05:49:04;12.68;;;6.80;;
52650;SDS011;38537;47.226;39.702;2022-10-22T05:51:34;7.80;;;5.55;;
52650;SDS011;38537;47.226;39.702;2022-10-22T05:54:03;10.85;;;6.13;;
52650;SDS011;38537;47.226;39.702;2022-10-22T05:56:33;8.63;;;5.20;;
52650;SDS011;38537;47.226;39.702;2022-10-22T05:59:01;10.40;;;6.07;;
52650;SDS011;38537;47.226;39.702;2022-10-22T06:01:32;12.38;;;5.68;;
52650;SDS011;38537;47.226;39.702;2022-10-22T06:04:04;4.45;;;3.85;;
52650;SDS011;38537;47.226;39.702;2022-10-22T06:06:34;7.25;;;4.38;;
52650;SDS011;38537;47.226;39.702;2022-10-22T06:09:12;8.60;;;3.88;;
52650;SDS011;38537;47.226;39.702;2022-10-22T06:11:48;6.45;;;4.20;;
52650;SDS011;38537;47.226;39.702;2022-10-22T06:14:17;5.95;;;3.80;;
52650;SDS011;38537;47.226;39.702;2022-10-22T06:16:46;8.65;;;5.38;;
52650;SDS011;38537;47.226;39.702;2022-10-22T06:19:14;13.13;;;6.07;;
52650;SDS011;38537;47.226;39.702;2022-10-22T06:21:43;5.75;;;3.90;;
52650;SDS011;38537;47.226;39.702;2022-10-22T06:24:11;7.68;;;4.63;;
52650;SDS011;38537;47.226;39.702;2022-10-22T06:26:39;4.70;;;3.72;;
52650;SDS011;38537;47.226;39.702;2022-10-22T06:29:07;7.95;;;5.15;;
52650;SDS011;38537;47.226;39.702;2022-10-22T06:31:35;5.53;;;4.00;;
52650;SDS011;38537;47.226;39.702;2022-10-22T06:34:03;8.38;;;5.18;;
52650;SDS011;38537;47.226;39.702;2022-10-22T06:36:32;9.98;;;5.70;;
52650;SDS011;38537;47.226;39.702;2022-10-22T06:39:00;9.00;;;6.43;;
52650;SDS011;38537;47.226;39.702;2022-10-22T06:41:28;12.80;;;7.30;;
52650;SDS011;38537;47.226;39.702;2022-10-22T06:43:55;11.27;;;6.78;;
52650;SDS011;38537;47.226;39.702;2022-10-22T06:46:24;7.82;;;5.75;;
52650;SDS011;38537;47.226;39.702;2022-10-22T06:48:57;9.85;;;5.38;;
52650;SDS011;38537;47.226;39.702;2022-10-22T06:51:26;6.53;;;4.18;;
52650;SDS011;38537;47.226;39.702;2022-10-22T06:53:57;9.35;;;5.65;;
52650;SDS011;38537;47.226;39.702;2022-10-22T06:56:25;9.60;;;5.28;;
52650;SDS011;38537;47.226;39.702;2022-10-22T06:58:56;7.03;;;4.75;;
52650;SDS011;38537;47.226;39.702;2022-10-22T07:01:25;7.07;;;4.90;;
52650;SDS011;38537;47.226;39.702;2022-10-22T07:03:58;7.68;;;4.22;;
52650;SDS011;38537;47.226;39.702;2022-10-22T07:06:26;5.93;;;3.85;;
52650;SDS011;38537;47.226;39.702;2022-10-22T07:08:55;6.97;;;4.30;;
52650;SDS011;38537;47.226;39.702;2022-10-22T07:11:26;6.60;;;3.88;;
52650;SDS011;38537;47.226;39.702;2022-10-22T07:13:56;5.25;;;3.40;;
52650;SDS011;38537;47.226;39.702;2022-10-22T07:16:27;5.95;;;3.50;;
52650;SDS011;38537;47.226;39.702;2022-10-22T07:22:07;8.85;;;3.08;;
52650;SDS011;38537;47.226;39.702;2022-10-22T07:24:34;5.72;;;3.17;;
52650;SDS011;38537;47.226;39.702;2022-10-22T07:27:01;6.32;;;3.40;;
52650;SDS011;38537;47.226;39.702;2022-10-22T07:29:31;4.80;;;3.55;;
52650;SDS011;38537;47.226;39.702;2022-10-22T07:31:58;3.78;;;3.05;;
52650;SDS011;38537;47.226;39.702;2022-10-22T07:34:26;4.47;;;3.00;;
52650;SDS011;38537;47.226;39.702;2022-10-22T07:36:53;5.93;;;3.83;;
52650;SDS011;38537;47.226;39.702;2022-10-22T07:39:22;5.63;;;3.08;;
52650;SDS011;38537;47.226;39.702;2022-10-22T07:41:51;6.22;;;3.17;;
52650;SDS011;38537;47.226;39.702;2022-10-22T07:44:18;5.47;;;3.22;;
52650;SDS011;38537;47.226;39.702;2022-10-22T07:46:45;3.33;;;2.90;;
52650;SDS011;38537;47.226;39.702;2022-10-22T07:49:14;4.50;;;2.80;;
52650;SDS011;38537;47.226;39.702;2022-10-22T07:51:42;5.25;;;3.10;;
52650;SDS011;38537;47.226;39.702;2022-10-22T07:54:09;4.72;;;2.88;;
52650;SDS011;38537;47.226;39.702;2022-10-22T07:56:36;5.05;;;3.30;;
52650;SDS011;38537;47.226;39.702;2022-10-22T07:59:04;7.85;;;3.60;;
52650;SDS011;38537;47.226;39.702;2022-10-22T08:01:31;4.68;;;3.03;;
52650;SDS011;38537;47.226;39.702;2022-10-22T08:03:58;6.93;;;3.63;;
52650;SDS011;38537;47.226;39.702;2022-10-22T08:06:26;4.15;;;3.08;;
52650;SDS011;38537;47.226;39.702;2022-10-22T08:08:53;5.50;;;3.50;;
52650;SDS011;38537;47.226;39.702;2022-10-22T08:11:20;3.45;;;3.15;;
52650;SDS011;38537;47.226;39.702;2022-10-22T08:13:47;3.58;;;3.25;;
52650;SDS011;38537;47.226;39.702;2022-10-22T08:16:15;3.28;;;2.97;;
52650;SDS011;38537;47.226;39.702;2022-10-22T08:18:43;7.43;;;2.92;;
52650;SDS011;38537;47.226;39.702;2022-10-22T08:21:11;5.25;;;2.85;;
52650;SDS011;38537;47.226;39.702;2022-10-22T08:23:39;5.32;;;3.78;;
52650;SDS011;38537;47.226;39.702;2022-10-22T08:26:07;6.35;;;3.70;;
52650;SDS011;38537;47.226;39.702;2022-10-22T08:28:36;4.65;;;3.30;;
52650;SDS011;38537;47.226;39.702;2022-10-22T08:31:04;4.53;;;3.50;;
52650;SDS011;38537;47.226;39.702;2022-10-22T08:33:33;3.70;;;3.00;;
52650;SDS011;38537;47.226;39.702;2022-10-22T08:36:00;3.45;;;2.80;;
52650;SDS011;38537;47.226;39.702;2022-10-22T08:38:28;4.72;;;2.88;;
52650;SDS011;38537;47.226;39.702;2022-10-22T08:41:19;3.83;;;3.20;;
52650;SDS011;38537;47.226;39.702;2022-10-22T08:44:03;3.67;;;3.28;;
52650;SDS011;38537;47.226;39.702;2022-10-22T08:47:04;7.88;;;3.33;;
52650;SDS011;38537;47.226;39.702;2022-10-22T08:49:47;5.20;;;3.10;;
52650;SDS011;38537;47.226;39.702;2022-10-22T08:52:15;4.55;;;3.10;;
52650;SDS011;38537;47.226;39.702;2022-10-22T08:54:55;5.47;;;3.35;;
52650;SDS011;38537;47.226;39.702;2022-10-22T09:00:23;3.30;;;2.50;;
52650;SDS011;38537;47.226;39.702;2022-10-22T09:08:25;5.93;;;3.20;;
52650;SDS011;38537;47.226;39.702;2022-10-22T09:11:05;4.00;;;3.08;;
52650;SDS011;38537;47.226;39.702;2022-10-22T09:13:40;4.18;;;2.88;;
52650;SDS011;38537;47.226;39.702;2022-10-22T09:24:39;3.78;;;2.90;;
52650;SDS011;38537;47.226;39.702;2022-10-22T09:27:25;4.35;;;2.60;;
52650;SDS011;38537;47.226;39.702;2022-10-22T09:29:53;4.80;;;3.15;;
52650;SDS011;38537;47.226;39.702;2022-10-22T09:32:21;4.55;;;3.42;;
52650;SDS011;38537;47.226;39.702;2022-10-22T09:34:49;4.63;;;2.90;;
52650;SDS011;38537;47.226;39.702;2022-10-22T09:37:23;3.42;;;2.67;;
52650;SDS011;38537;47.226;39.702;2022-10-22T09:39:52;3.10;;;2.80;;
52650;SDS011;38537;47.226;39.702;2022-10-22T09:42:21;7.32;;;3.13;;
52650;SDS011;38537;47.226;39.702;2022-10-22T09:44:53;3.75;;;2.90;;
52650;SDS011;38537;47.226;39.702;2022-10-22T09:52:54;4.40;;;3.30;;
52650;SDS011;38537;47.226;39.702;2022-10-22T09:55:28;5.38;;;3.13;;
52650;SDS011;38537;47.226;39.702;2022-10-22T09:57:57;4.25;;;3.15;;
52650;SDS011;38537;47.226;39.702;2022-10-22T10:00:26;3.97;;;3.20;;
52650;SDS011;38537;47.226;39.702;2022-10-22T10:02:58;4.75;;;3.40;;
52650;SDS011;38537;47.226;39.702;2022-10-22T10:05:33;3.83;;;3.33;;
52650;SDS011;38537;47.226;39.702;2022-10-22T10:08:12;3.95;;;3.30;;
52650;SDS011;38537;47.226;39.702;2022-10-22T10:10:48;4.72;;;3.20;;
52650;SDS011;38537;47.226;39.702;2022-10-22T10:27:39;6.22;;;3.35;;
52650;SDS011;38537;47.226;39.702;2022-10-22T10:30:13;3.80;;;3.10;;
52650;SDS011;38537;47.226;39.702;2022-10-22T10:38:31;3.90;;;3.40;;
52650;SDS011;38537;47.226;39.702;2022-10-22T10:49:53;5.10;;;2.92;;
52650;SDS011;38537;47.226;39.702;2022-10-22T10:52:30;3.00;;;2.60;;
52650;SDS011;38537;47.226;39.702;2022-10-22T10:57:47;3.35;;;2.20;;
52650;SDS011;38537;47.226;39.702;2022-10-22T11:00:23;4.07;;;2.23;;
52650;SDS011;38537;47.226;39.702;2022-10-22T11:06:00;4.88;;;2.60;;
52650;SDS011;38537;47.226;39.702;2022-10-22T11:08:34;4.88;;;2.60;;
52650;SDS011;38537;47.226;39.702;2022-10-22T11:11:10;3.60;;;2.78;;
52650;SDS011;38537;47.226;39.702;2022-10-22T11:13:50;4.95;;;3.15;;
52650;SDS011;38537;47.226;39.702;2022-10-22T11:16:23;3.40;;;3.03;;
52650;SDS011;38537;47.226;39.702;2022-10-22T11:25:37;2.78;;;2.50;;
52650;SDS011;38537;47.226;39.702;2022-10-22T11:27:51;3.58;;;2.58;;
52650;SDS011;38537;47.226;39.702;2022-10-22T11:30:34;3.47;;;2.70;;
52650;SDS011;38537;47.226;39.702;2022-10-22T11:33:09;3.20;;;2.60;;
52650;SDS011;38537;47.226;39.702;2022-10-22T11:35:41;3.75;;;2.60;;
52650;SDS011;38537;47.226;39.702;2022-10-22T11:38:11;3.53;;;2.33;;
52650;SDS011;38537;47.226;39.702;2022-10-22T11:40:55;4.32;;;2.60;;
52650;SDS011;38537;47.226;39.702;2022-10-22T11:43:33;3.72;;;2.67;;
52650;SDS011;38537;47.226;39.702;2022-10-22T11:48:59;3.70;;;2.20;;
52650;SDS011;38537;47.226;39.702;2022-10-22T11:51:47;2.67;;;2.33;;
52650;SDS011;38537;47.226;39.702;2022-10-22T11:54:29;3.60;;;2.30;;
52650;SDS011;38537;47.226;39.702;2022-10-22T11:56:57;2.47;;;2.00;;
52650;SDS011;38537;47.226;39.702;2022-10-22T12:00:00;3.55;;;1.80;;
52650;SDS011;38537;47.226;39.702;2022-10-22T12:02:38;3.97;;;2.78;;
52650;SDS011;38537;47.226;39.702;2022-10-22T12:07:58;2.78;;;1.88;;
52650;SDS011;38537;47.226;39.702;2022-10-22T12:13:28;3.00;;;2.20;;
52650;SDS011;38537;47.226;39.702;2022-10-22T12:15:58;3.20;;;2.17;;
52650;SDS011;38537;47.226;39.702;2022-10-22T12:18:32;4.15;;;2.25;;
52650;SDS011;38537;47.226;39.702;2022-10-22T12:21:09;3.75;;;2.28;;
52650;SDS011;38537;47.226;39.702;2022-10-22T12:23:40;2.92;;;2.00;;
52650;SDS011;38537;47.226;39.702;2022-10-22T12:26:21;4.55;;;2.80;;
52650;SDS011;38537;47.226;39.702;2022-10-22T12:28:57;4.18;;;2.28;;
52650;SDS011;38537;47.226;39.702;2022-10-22T12:31:25;3.05;;;2.40;;
52650;SDS011;38537;47.226;39.702;2022-10-22T12:33:55;4.57;;;2.40;;
52650;SDS011;38537;47.226;39.702;2022-10-22T12:36:26;2.65;;;2.35;;
52650;SDS011;38537;47.226;39.702;2022-10-22T12:38:54;3.47;;;2.10;;
52650;SDS011;38537;47.226;39.702;2022-10-22T12:41:30;2.75;;;1.80;;
52650;SDS011;38537;47.226;39.702;2022-10-22T12:44:03;3.05;;;1.98;;
52650;SDS011;38537;47.226;39.702;2022-10-22T12:46:34;2.88;;;2.10;;
52650;SDS011;38537;47.226;39.702;2022-10-22T12:49:03;3.45;;;2.35;;
52650;SDS011;38537;47.226;39.702;2022-10-22T12:51:34;4.35;;;2.55;;
52650;SDS011;38537;47.226;39.702;2022-10-22T12:54:09;3.50;;;2.05;;
52650;SDS011;38537;47.226;39.702;2022-10-22T12:56:52;3.40;;;2.38;;
52650;SDS011;38537;47.226;39.702;2022-10-22T12:59:22;2.80;;;1.80;;
52650;SDS011;38537;47.226;39.702;2022-10-22T13:02:01;2.65;;;1.90;;
52650;SDS011;38537;47.226;39.702;2022-10-22T13:04:39;4.93;;;2.38;;
52650;SDS011;38537;47.226;39.702;2022-10-22T13:12:14;4.32;;;2.60;;
52650;SDS011;38537;47.226;39.702;2022-10-22T13:14:52;2.80;;;2.42;;
52650;SDS011;38537;47.226;39.702;2022-10-22T13:17:35;3.15;;;2.28;;
52650;SDS011;38537;47.226;39.702;2022-10-22T13:20:21;2.90;;;2.60;;
52650;SDS011;38537;47.226;39.702;2022-10-22T13:22:56;3.50;;;2.70;;
52650;SDS011;38537;47.226;39.702;2022-10-22T13:25:29;2.85;;;2.55;;
52650;SDS011;38537;47.226;39.702;2022-10-22T13:28:15;4.07;;;2.65;;
52650;SDS011;38537;47.226;39.702;2022-10-22T13:33:25;4.03;;;2.90;;
52650;SDS011;38537;47.226;39.702;2022-10-22T13:36:00;4.35;;;3.00;;
52650;SDS011;38537;47.226;39.702;2022-10-22T13:38:27;4.20;;;2.80;;
52650;SDS011;38537;47.226;39.702;2022-10-22T13:40:55;6.75;;;2.83;;
52650;SDS011;38537;47.226;39.702;2022-10-22T13:43:23;3.70;;;2.40;;
52650;SDS011;38537;47.226;39.702;2022-10-22T13:45:52;3.45;;;2.53;;
52650;SDS011;38537;47.226;39.702;2022-10-22T13:48:23;7.57;;;3.47;;
52650;SDS011;38537;47.226;39.702;2022-10-22T13:50:52;3.75;;;3.10;;
52650;SDS011;38537;47.226;39.702;2022-10-22T13:53:24;4.78;;;3.22;;
52650;SDS011;38537;47.226;39.702;2022-10-22T13:55:53;7.20;;;3.05;;
52650;SDS011;38537;47.226;39.702;2022-10-22T13:58:21;4.63;;;3.28;;
52650;SDS011;38537;47.226;39.702;2022-10-22T14:00:51;5.05;;;3.90;;
52650;SDS011;38537;47.226;39.702;2022-10-22T14:03:30;6.53;;;3.92;;
52650;SDS011;38537;47.226;39.702;2022-10-22T14:06:00;4.97;;;4.10;;
52650;SDS011;38537;47.226;39.702;2022-10-22T14:08:27;6.32;;;4.80;;
52650;SDS011;38537;47.226;39.702;2022-10-22T14:10:55;6.40;;;4.10;;
52650;SDS011;38537;47.226;39.702;2022-10-22T14:13:22;7.22;;;4.03;;
52650;SDS011;38537;47.226;39.702;2022-10-22T14:15:50;6.05;;;4.20;;
52650;SDS011;38537;47.226;39.702;2022-10-22T14:18:24;6.45;;;4.22;;
52650;SDS011;38537;47.226;39.702;2022-10-22T14:20:56;7.25;;;4.50;;
52650;SDS011;38537;47.226;39.702;2022-10-22T14:23:27;6.18;;;4.57;;
52650;SDS011;38537;47.226;39.702;2022-10-22T14:25:58;5.68;;;4.30;;
52650;SDS011;38537;47.226;39.702;2022-10-22T14:28:26;6.57;;;5.18;;
52650;SDS011;38537;47.226;39.702;2022-10-22T14:30:57;8.43;;;5.82;;
52650;SDS011;38537;47.226;39.702;2022-10-22T14:33:33;11.13;;;6.53;;
52650;SDS011;38537;47.226;39.702;2022-10-22T14:36:01;11.88;;;7.53;;
52650;SDS011;38537;47.226;39.702;2022-10-22T14:38:28;14.85;;;7.57;;
52650;SDS011;38537;47.226;39.702;2022-10-22T14:40:56;16.15;;;7.47;;
52650;SDS011;38537;47.226;39.702;2022-10-22T14:43:26;11.48;;;7.15;;
52650;SDS011;38537;47.226;39.702;2022-10-22T14:45:57;15.15;;;6.80;;
52650;SDS011;38537;47.226;39.702;2022-10-22T14:48:24;14.90;;;8.65;;
52650;SDS011;38537;47.226;39.702;2022-10-22T14:50:51;14.20;;;7.30;;
52650;SDS011;38537;47.226;39.702;2022-10-22T14:53:20;9.85;;;6.20;;
52650;SDS011;38537;47.226;39.702;2022-10-22T14:55:47;10.18;;;5.95;;
52650;SDS011;38537;47.226;39.702;2022-10-22T14:58:17;11.25;;;6.40;;
52650;SDS011;38537;47.226;39.702;2022-10-22T15:00:44;8.35;;;5.15;;
52650;SDS011;38537;47.226;39.702;2022-10-22T15:03:12;9.30;;;5.72;;
52650;SDS011;38537;47.226;39.702;2022-10-22T15:05:39;9.52;;;6.53;;
52650;SDS011;38537;47.226;39.702;2022-10-22T15:08:11;10.40;;;7.85;;
52650;SDS011;38537;47.226;39.702;2022-10-22T15:10:40;10.48;;;6.20;;
52650;SDS011;38537;47.226;39.702;2022-10-22T15:13:07;10.45;;;6.68;;
52650;SDS011;38537;47.226;39.702;2022-10-22T15:15:38;11.85;;;8.27;;
52650;SDS011;38537;47.226;39.702;2022-10-22T15:18:05;11.80;;;7.93;;
52650;SDS011;38537;47.226;39.702;2022-10-22T15:20:34;13.48;;;7.53;;
52650;SDS011;38537;47.226;39.702;2022-10-22T15:23:01;15.82;;;8.43;;
52650;SDS011;38537;47.226;39.702;2022-10-22T15:25:29;13.77;;;8.13;;
52650;SDS011;38537;47.226;39.702;2022-10-22T15:27:56;15.95;;;9.20;;
52650;SDS011;38537;47.226;39.702;2022-10-22T15:30:33;22.67;;;8.77;;
52650;SDS011;38537;47.226;39.702;2022-10-22T15:33:00;21.92;;;9.32;;
52650;SDS011;38537;47.226;39.702;2022-10-22T15:35:28;16.90;;;9.63;;
52650;SDS011;38537;47.226;39.702;2022-10-22T15:37:55;15.70;;;9.38;;
52650;SDS011;38537;47.226;39.702;2022-10-22T15:40:22;16.55;;;9.40;;
52650;SDS011;38537;47.226;39.702;2022-10-22T15:42:49;14.50;;;8.10;;
52650;SDS011;38537;47.226;39.702;2022-10-22T15:45:17;11.90;;;7.47;;
52650;SDS011;38537;47.226;39.702;2022-10-22T15:47:47;12.77;;;7.65;;
52650;SDS011;38537;47.226;39.702;2022-10-22T15:50:15;14.80;;;7.97;;
52650;SDS011;38537;47.226;39.702;2022-10-22T15:52:43;15.50;;;9.88;;
52650;SDS011;38537;47.226;39.702;2022-10-22T15:55:10;11.73;;;7.50;;
52650;SDS011;38537;47.226;39.702;2022-10-22T15:57:38;15.48;;;8.38;;
52650;SDS011;38537;47.226;39.702;2022-10-22T16:00:06;10.50;;;6.20;;
52650;SDS011;38537;47.226;39.702;2022-10-22T16:02:40;11.23;;;7.13;;
52650;SDS011;38537;47.226;39.702;2022-10-22T16:05:08;12.23;;;7.32;;
52650;SDS011;38537;47.226;39.702;2022-10-22T16:07:35;12.45;;;7.22;;
52650;SDS011;38537;47.226;39.702;2022-10-22T16:10:03;14.82;;;8.20;;
52650;SDS011;38537;47.226;39.702;2022-10-22T16:12:33;12.43;;;7.65;;
52650;SDS011;38537;47.226;39.702;2022-10-22T16:15:05;12.70;;;8.05;;
52650;SDS011;38537;47.226;39.702;2022-10-22T16:17:33;14.10;;;8.13;;
52650;SDS011;38537;47.226;39.702;2022-10-22T16:20:00;10.85;;;7.97;;
52650;SDS011;38537;47.226;39.702;2022-10-22T16:22:28;13.73;;;8.50;;
52650;SDS011;38537;47.226;39.702;2022-10-22T16:24:56;13.82;;;9.57;;
52650;SDS011;38537;47.226;39.702;2022-10-22T16:27:24;20.08;;;10.20;;
52650;SDS011;38537;47.226;39.702;2022-10-22T16:29:51;16.98;;;10.93;;
52650;SDS011;38537;47.226;39.702;2022-10-22T16:32:19;18.25;;;9.43;;
52650;SDS011;38537;47.226;39.702;2022-10-22T16:34:46;14.23;;;8.45;;
52650;SDS011;38537;47.226;39.702;2022-10-22T16:37:13;18.02;;;10.57;;
52650;SDS011;38537;47.226;39.702;2022-10-22T16:39:40;18.70;;;9.60;;
52650;SDS011;38537;47.226;39.702;2022-10-22T16:42:08;20.70;;;10.30;;
52650;SDS011;38537;47.226;39.702;2022-10-22T16:44:35;18.48;;;11.13;;
52650;SDS011;38537;47.226;39.702;2022-10-22T16:47:02;20.40;;;11.23;;